createdAt,value
2023-02-18T00:00:54.386Z,96988.06
2023-02-18T00:03:27.745Z,96995.83
2023-02-18T00:06:01.048Z,96999.31
2023-02-18T00:08:33.979Z,97007.07
2023-02-18T00:11:08.828Z,97011.40
2023-02-18T00:13:41.426Z,97009.13
2023-02-18T00:16:14.855Z,97012.00
2023-02-18T00:18:47.501Z,97016.70
2023-02-18T00:21:20.127Z,97016.06
2023-02-18T00:23:54.044Z,97021.81
2023-02-18T00:26:26.804Z,97034.52
2023-02-18T00:28:59.182Z,97045.06
2023-02-18T00:31:34.303Z,97048.70
2023-02-18T00:34:07.876Z,97052.23
2023-02-18T00:36:40.416Z,97061.77
2023-02-18T00:39:18.840Z,97068.57
2023-02-18T00:41:51.873Z,97069.75
2023-02-18T00:44:24.936Z,97086.02
2023-02-18T00:46:57.710Z,97070.36
2023-02-18T00:49:30.504Z,97065.59
2023-02-18T00:52:03.655Z,97064.90
2023-02-18T00:54:37.324Z,97072.54
2023-02-18T00:57:09.959Z,97060.33
2023-02-18T00:59:43.059Z,97060.30
2023-02-18T01:02:15.803Z,97061.10
2023-02-18T01:04:49.302Z,97065.45
2023-02-18T01:07:23.876Z,97066.72
2023-02-18T01:09:57.276Z,97058.13
2023-02-18T01:12:29.992Z,97056.83
2023-02-18T01:15:03.160Z,97058.10
2023-02-18T01:17:35.961Z,97058.96
2023-02-18T01:20:14.001Z,97065.52
2023-02-18T01:22:47.318Z,97064.34
2023-02-18T01:25:19.999Z,97062.75
2023-02-18T01:27:52.845Z,97062.55
2023-02-18T01:30:26.009Z,97058.87
2023-02-18T01:32:59.372Z,97065.48
2023-02-18T01:35:33.566Z,97066.77
2023-02-18T01:38:06.951Z,97063.05
2023-02-18T01:40:46.746Z,97054.09
2023-02-18T01:43:19.625Z,97057.35
2023-02-18T01:46:24.343Z,97065.05
2023-02-18T01:49:00.384Z,97057.92
2023-02-18T01:51:37.454Z,97058.92
2023-02-18T01:54:15.357Z,97060.61
2023-02-18T01:56:50.672Z,97063.13
2023-02-18T01:59:27.706Z,97058.07
2023-02-18T02:02:01.453Z,97060.30
2023-02-18T02:04:35.334Z,97072.55
2023-02-18T02:07:09.150Z,97075.45
2023-02-18T02:09:43.761Z,97081.83
2023-02-18T02:12:38.393Z,97083.25
2023-02-18T02:15:36.455Z,97087.50
2023-02-18T02:18:29.013Z,97097.76
2023-02-18T02:21:30.503Z,97098.30
2023-02-18T02:24:30.322Z,97097.13
2023-02-18T02:27:24.127Z,97098.09
2023-02-18T02:30:43.860Z,97107.41
2023-02-18T02:33:42.645Z,97110.05
2023-02-18T02:36:18.781Z,97111.02
2023-02-18T02:39:02.544Z,97117.02
2023-02-18T02:41:48.774Z,97122.85
2023-02-18T02:44:29.278Z,97134.05
2023-02-18T02:47:10.016Z,97133.23
2023-02-18T02:49:50.615Z,97132.31
2023-02-18T02:52:27.505Z,97139.59
2023-02-18T02:55:00.324Z,97138.31
2023-02-18T02:57:51.071Z,97143.34
2023-02-18T03:00:40.802Z,97146.42
2023-02-18T03:03:37.446Z,97145.94
2023-02-18T03:06:38.079Z,97149.54
2023-02-18T03:09:18.305Z,97157.52
2023-02-18T03:12:03.348Z,97163.20
2023-02-18T03:14:47.588Z,97166.02
2023-02-18T03:17:29.282Z,97170.52
2023-02-18T03:20:10.371Z,97171.98
2023-02-18T03:22:50.309Z,97163.30
2023-02-18T03:25:23.488Z,97165.70
2023-02-18T03:27:58.369Z,97171.43
2023-02-18T03:30:34.685Z,97170.60
2023-02-18T03:33:11.668Z,97170.88
2023-02-18T03:35:46.417Z,97176.35
2023-02-18T03:38:23.683Z,97175.91
2023-02-18T03:40:57.099Z,97178.54
2023-02-18T03:43:30.269Z,97183.07
2023-02-18T03:46:04.319Z,97190.81
2023-02-18T03:48:37.535Z,97194.83
2023-02-18T03:51:10.179Z,97197.81
2023-02-18T03:53:42.878Z,97204.61
2023-02-18T03:56:14.593Z,97206.95
2023-02-18T03:58:47.106Z,97206.41
2023-02-18T04:01:19.892Z,97209.48
2023-02-18T04:03:53.374Z,97211.94
2023-02-18T04:06:26.166Z,97213.91
2023-02-18T04:08:58.943Z,97220.26
2023-02-18T04:11:31.425Z,97221.64
2023-02-18T04:14:06.072Z,97229.39
2023-02-18T04:16:39.266Z,97230.30
2023-02-18T04:19:11.827Z,97230.52
2023-02-18T04:21:44.570Z,97230.68
2023-02-18T04:24:17.326Z,97231.85
2023-02-18T04:26:49.786Z,97235.60
2023-02-18T04:29:22.235Z,97233.33
2023-02-18T04:31:54.900Z,97238.19
2023-02-18T04:34:27.564Z,97242.14
2023-02-18T04:37:00.372Z,97244.03
2023-02-18T04:39:32.847Z,97244.75
2023-02-18T04:42:09.412Z,97243.05
2023-02-18T04:44:42.782Z,97243.44
2023-02-18T04:47:15.472Z,97243.15
2023-02-18T04:49:49.495Z,97236.13
2023-02-18T04:52:22.126Z,97240.41
2023-02-18T04:54:54.945Z,97243.29
2023-02-18T04:57:27.531Z,97245.21
2023-02-18T05:00:00.037Z,97248.00
2023-02-18T05:02:32.644Z,97251.63
2023-02-18T05:05:05.734Z,97254.01
2023-02-18T05:07:38.936Z,97256.93
2023-02-18T05:10:16.293Z,97258.11
2023-02-18T05:12:50.965Z,97256.80
2023-02-18T05:15:23.650Z,97264.05
2023-02-18T05:17:56.659Z,97263.39
2023-02-18T05:20:29.417Z,97265.15
2023-02-18T05:23:02.289Z,97266.06
2023-02-18T05:25:34.853Z,97266.45
2023-02-18T05:28:07.721Z,97267.14
2023-02-18T05:30:40.555Z,97263.62
2023-02-18T05:33:13.123Z,97268.66
2023-02-18T05:35:45.694Z,97265.18
2023-02-18T05:38:18.235Z,97266.20
2023-02-18T05:40:50.948Z,97266.83
2023-02-18T05:43:23.510Z,97268.78
2023-02-18T05:45:56.085Z,97275.42
2023-02-18T05:48:28.668Z,97279.33
2023-02-18T05:51:01.252Z,97287.75
2023-02-18T05:53:35.662Z,97288.44
2023-02-18T05:56:09.880Z,97287.28
2023-02-18T05:58:42.684Z,97287.20
2023-02-18T06:01:15.151Z,97287.71
2023-02-18T06:03:47.919Z,97291.61
2023-02-18T06:06:20.308Z,97294.54
2023-02-18T06:08:53.358Z,97299.80
2023-02-18T06:11:25.761Z,97302.17
2023-02-18T06:13:58.266Z,97303.23
2023-02-18T06:16:33.062Z,97299.63
2023-02-18T06:19:05.953Z,97305.28
2023-02-18T06:21:38.588Z,97298.58
2023-02-18T06:24:11.791Z,97296.88
2023-02-18T06:26:44.338Z,97296.83
2023-02-18T06:29:16.988Z,97304.68
2023-02-18T06:31:49.768Z,97302.46
2023-02-18T06:34:23.986Z,97306.90
2023-02-18T06:36:56.778Z,97307.58
2023-02-18T06:39:29.248Z,97313.02
2023-02-18T06:42:01.903Z,97320.92
2023-02-18T06:44:36.395Z,97317.11
2023-02-18T06:47:10.364Z,97308.20
2023-02-18T06:49:42.912Z,97304.80
2023-02-18T06:52:15.402Z,97306.29
2023-02-18T06:54:48.118Z,97313.99
2023-02-18T06:57:21.074Z,97324.30
2023-02-18T06:59:56.082Z,97328.75
2023-02-18T07:02:28.678Z,97328.71
2023-02-18T07:05:01.748Z,97324.41
2023-02-18T07:07:33.033Z,97327.84
2023-02-18T07:10:06.163Z,97326.79
2023-02-18T07:12:39.242Z,97325.83
2023-02-18T07:15:13.407Z,97329.05
2023-02-18T07:17:47.675Z,97336.40
2023-02-18T07:20:25.355Z,97338.42
2023-02-18T07:23:01.921Z,97338.42
2023-02-18T07:25:32.988Z,97339.09
2023-02-18T07:28:06.333Z,97336.34
2023-02-18T07:30:39.010Z,97338.58
2023-02-18T07:33:11.804Z,97334.70
2023-02-18T07:35:44.432Z,97335.20
2023-02-18T07:38:17.036Z,97342.14
2023-02-18T07:40:50.382Z,97338.84
2023-02-18T07:43:23.689Z,97339.31
2023-02-18T07:45:56.246Z,97334.33
2023-02-18T07:48:29.520Z,97324.89
2023-02-18T07:51:12.064Z,97330.88
2023-02-18T07:53:47.493Z,97329.52
2023-02-18T07:56:23.012Z,97330.70
2023-02-18T07:58:56.351Z,97328.96
2023-02-18T08:01:29.571Z,97333.13
2023-02-18T08:04:02.862Z,97336.27
2023-02-18T08:06:38.541Z,97337.08
2023-02-18T08:09:11.571Z,97341.98
2023-02-18T08:11:44.246Z,97344.82
2023-02-18T08:14:17.134Z,97338.63
2023-02-18T08:16:49.610Z,97339.82
2023-02-18T08:19:22.796Z,97343.50
2023-02-18T08:21:55.546Z,97344.95
2023-02-18T08:24:28.671Z,97339.55
2023-02-18T08:27:04.286Z,97337.59
2023-02-18T08:29:37.047Z,97342.44
2023-02-18T08:32:09.978Z,97338.38
2023-02-18T08:34:42.916Z,97342.98
2023-02-18T08:37:15.898Z,97345.66
2023-02-18T08:39:49.960Z,97346.04
2023-02-18T08:42:22.597Z,97344.50
2023-02-18T08:44:56.409Z,97345.17
2023-02-18T08:51:09.349Z,97344.55
2023-02-18T08:54:58.082Z,97351.18
2023-02-18T08:58:26.020Z,97353.65
2023-02-18T09:01:34.284Z,97354.08
2023-02-18T09:04:10.253Z,97355.96
2023-02-18T09:06:43.398Z,97352.09
2023-02-18T09:09:16.535Z,97347.52
2023-02-18T09:11:49.449Z,97350.15
2023-02-18T09:14:22.409Z,97346.77
2023-02-18T09:16:55.731Z,97351.02
2023-02-18T09:19:29.129Z,97349.39
2023-02-18T09:22:01.857Z,97347.97
2023-02-18T09:24:41.826Z,97346.89
2023-02-18T09:27:15.310Z,97344.59
2023-02-18T09:29:48.575Z,97349.04
2023-02-18T09:32:33.576Z,97348.02
2023-02-18T09:35:07.580Z,97347.23
2023-02-18T09:37:41.533Z,97346.41
2023-02-18T09:40:35.307Z,97342.45
2023-02-18T09:43:09.233Z,97340.91
2023-02-18T09:45:40.153Z,97343.59
2023-02-18T09:48:16.754Z,97342.19
2023-02-18T09:50:54.552Z,97341.54
2023-02-18T09:53:29.488Z,97342.66
2023-02-18T09:56:04.228Z,97338.76
2023-02-18T09:58:38.326Z,97334.73
2023-02-18T10:01:30.848Z,97329.05
2023-02-18T10:07:38.631Z,97324.85
2023-02-18T10:10:22.894Z,97321.73
2023-02-18T10:12:57.468Z,97321.05
2023-02-18T10:15:33.463Z,97319.91
2023-02-18T10:18:14.549Z,97326.65
2023-02-18T10:20:47.757Z,97327.42
2023-02-18T10:23:22.198Z,97318.91
2023-02-18T10:25:56.223Z,97315.18
2023-02-18T10:28:30.336Z,97319.98
2023-02-18T10:31:08.831Z,97315.11
2023-02-18T10:33:48.896Z,97312.76
2023-02-18T10:36:28.227Z,97308.39
2023-02-18T10:39:20.976Z,97305.54
2023-02-18T10:42:02.894Z,97307.95
2023-02-18T10:44:46.734Z,97302.96
2023-02-18T10:47:32.388Z,97287.34
2023-02-18T10:50:11.050Z,97284.68
2023-02-18T10:52:47.655Z,97278.02
2023-02-18T10:55:35.218Z,97278.02
2023-02-18T10:58:26.058Z,97271.11
2023-02-18T11:00:59.173Z,97263.33
2023-02-18T11:03:44.118Z,97264.03
2023-02-18T11:06:29.884Z,97255.20
2023-02-18T11:09:04.022Z,97255.02
2023-02-18T11:11:40.053Z,97253.66
2023-02-18T11:14:36.843Z,97247.50
2023-02-18T11:17:18.601Z,97249.39
2023-02-18T11:19:58.652Z,97241.35
2023-02-18T11:22:33.993Z,97245.26
2023-02-18T11:25:21.042Z,97248.05
2023-02-18T11:27:57.041Z,97248.48
2023-02-18T11:30:35.864Z,97245.36
2023-02-18T11:33:16.171Z,97239.98
2023-02-18T11:35:54.480Z,97237.80
2023-02-18T11:38:31.233Z,97241.29
2023-02-18T11:41:16.568Z,97246.25
2023-02-18T11:43:51.841Z,97241.71
2023-02-18T11:46:27.400Z,97232.24
2023-02-18T11:49:12.753Z,97232.02
2023-02-18T11:51:46.294Z,97232.36
2023-02-18T11:54:30.708Z,97238.78
2023-02-18T11:57:08.182Z,97243.27
2023-02-18T11:59:45.218Z,97246.08
2023-02-18T12:02:32.099Z,97251.49
2023-02-18T12:05:13.364Z,97250.65
2023-02-18T12:07:52.132Z,97245.48
2023-02-18T12:10:33.772Z,97248.14
2023-02-18T12:13:14.298Z,97251.91
2023-02-18T12:15:55.862Z,97241.64
2023-02-18T12:19:01.303Z,97239.61
2023-02-18T12:21:45.690Z,97232.59
2023-02-18T12:24:34.703Z,97224.91
2023-02-18T12:27:15.980Z,97227.23
2023-02-18T12:30:30.006Z,97216.16
2023-02-18T12:33:12.120Z,97214.20
2023-02-18T12:36:00.067Z,97205.13
2023-02-18T12:39:04.847Z,97203.56
2023-02-18T12:41:54.754Z,97192.27
2023-02-18T12:44:45.878Z,97183.60
2023-02-18T12:47:41.843Z,97178.63
2023-02-18T12:50:42.622Z,97179.30
2023-02-18T12:53:50.686Z,97166.81
2023-02-18T12:56:53.148Z,97162.36
2023-02-18T12:59:47.142Z,97156.22
2023-02-18T13:02:38.059Z,97153.08
2023-02-18T13:05:20.569Z,97148.50
2023-02-18T13:08:12.684Z,97141.23
2023-02-18T13:11:00.661Z,97142.58
2023-02-18T13:13:39.077Z,97136.25
2023-02-18T13:16:15.676Z,97139.57
2023-02-18T13:18:57.639Z,97142.17
2023-02-18T13:21:32.941Z,97141.60
2023-02-18T13:24:09.037Z,97130.98
2023-02-18T13:26:43.898Z,97130.67
2023-02-18T13:29:30.359Z,97122.80
2023-02-18T13:32:19.404Z,97116.88
2023-02-18T13:35:02.239Z,97111.91
2023-02-18T13:37:50.089Z,97109.65
2023-02-18T13:40:28.017Z,97103.84
2023-02-18T13:43:21.817Z,97096.98
2023-02-18T13:46:23.697Z,97089.14
2023-02-18T13:49:06.637Z,97087.75
2023-02-18T13:51:43.476Z,97090.88
2023-02-18T13:54:25.993Z,97083.55
2023-02-18T13:57:04.380Z,97078.38
2023-02-18T13:59:43.051Z,97071.74
2023-02-18T14:02:38.880Z,97062.27
2023-02-18T14:05:26.115Z,97057.48
2023-02-18T14:08:17.622Z,97047.86
2023-02-18T14:11:35.220Z,97043.19
2023-02-18T14:14:38.291Z,97027.89
2023-02-18T14:17:39.668Z,97013.67
2023-02-18T14:20:45.773Z,97004.65
2023-02-18T14:23:45.702Z,97000.31
2023-02-18T14:26:30.995Z,96988.79
2023-02-18T14:29:08.790Z,96982.46
2023-02-18T14:31:50.306Z,96974.73
2023-02-18T14:35:00.175Z,96973.30
2023-02-18T14:38:03.835Z,96968.03
2023-02-18T14:41:02.849Z,96952.08
2023-02-18T14:44:06.477Z,96951.14
2023-02-18T14:46:59.796Z,96945.25
2023-02-18T14:49:42.885Z,96942.36
2023-02-18T14:52:30.777Z,96939.39
2023-02-18T14:55:06.939Z,96928.52
2023-02-18T14:57:47.162Z,96919.08
2023-02-18T15:00:23.775Z,96911.58
2023-02-18T15:02:58.407Z,96904.16
2023-02-18T15:05:33.008Z,96899.68
2023-02-18T15:08:09.488Z,96889.27
2023-02-18T15:10:45.879Z,96888.08
2023-02-18T15:13:23.660Z,96882.73
2023-02-18T15:15:59.963Z,96875.79
2023-02-18T15:18:40.601Z,96872.41
2023-02-18T15:21:27.771Z,96861.29
2023-02-18T15:24:09.937Z,96849.90
2023-02-18T15:26:51.502Z,96841.89
2023-02-18T15:29:29.462Z,96828.61
2023-02-18T15:32:10.558Z,96813.52
2023-02-18T15:34:47.993Z,96796.80
2023-02-18T15:37:21.473Z,96782.21
2023-02-18T15:39:57.496Z,96771.94
2023-02-18T15:42:35.982Z,96766.48
2023-02-18T15:45:22.471Z,96753.41
2023-02-18T15:48:00.773Z,96750.08
2023-02-18T15:50:39.410Z,96742.63
2023-02-18T15:53:17.351Z,96740.58
2023-02-18T15:55:55.592Z,96731.34
2023-02-18T15:58:32.511Z,96734.91
2023-02-18T16:01:10.679Z,96725.98
2023-02-18T16:03:52.440Z,96727.92
2023-02-18T16:06:28.873Z,96726.42
2023-02-18T16:09:09.256Z,96726.93
2023-02-18T16:11:47.115Z,96726.91
2023-02-18T16:14:36.986Z,96730.67
2023-02-18T16:17:17.016Z,96727.86
2023-02-18T16:20:04.504Z,96728.10
2023-02-18T16:22:52.653Z,96717.08
2023-02-18T16:25:38.979Z,96711.54
2023-02-18T16:28:24.477Z,96701.86
2023-02-18T16:31:00.444Z,96699.70
2023-02-18T16:33:39.377Z,96700.52
2023-02-18T16:36:27.082Z,96699.45
2023-02-18T16:39:02.995Z,96694.91
2023-02-18T16:41:40.035Z,96699.40
2023-02-18T16:44:19.195Z,96700.30
2023-02-18T16:46:54.795Z,96697.33
2023-02-18T16:49:30.924Z,96700.32
2023-02-18T16:52:12.165Z,96694.16
2023-02-18T16:54:48.699Z,96688.28
2023-02-18T16:57:24.563Z,96689.79
2023-02-18T17:00:00.525Z,96692.91
2023-02-18T17:02:35.411Z,96695.19
2023-02-18T17:05:25.483Z,96694.81
2023-02-18T17:08:01.493Z,96698.63
2023-02-18T17:10:34.836Z,96693.34
2023-02-18T17:13:07.893Z,96689.11
2023-02-18T17:15:41.546Z,96689.55
2023-02-18T17:18:15.138Z,96696.89
2023-02-18T17:20:46.635Z,96705.86
2023-02-18T17:23:27.094Z,96707.32
2023-02-18T17:26:03.299Z,96705.29
2023-02-18T17:28:42.434Z,96701.20
2023-02-18T17:31:25.479Z,96700.64
2023-02-18T17:34:01.524Z,96693.48
2023-02-18T17:36:34.797Z,96692.55
2023-02-18T17:39:15.661Z,96692.30
2023-02-18T17:41:49.417Z,96689.96
2023-02-18T17:44:24.025Z,96686.46
2023-02-18T17:46:58.446Z,96692.63
2023-02-18T17:49:31.170Z,96693.80
2023-02-18T17:52:06.800Z,96687.99
2023-02-18T17:54:39.857Z,96691.04
2023-02-18T17:57:13.068Z,96688.28
2023-02-18T17:59:45.953Z,96686.66
2023-02-18T18:02:28.863Z,96691.67
2023-02-18T18:05:01.352Z,96694.71
2023-02-18T18:07:36.959Z,96703.77
2023-02-18T18:10:11.358Z,96705.48
2023-02-18T18:12:46.327Z,96704.54
2023-02-18T18:15:30.214Z,96699.14
2023-02-18T18:18:09.790Z,96697.35
2023-02-18T18:20:45.164Z,96693.95
2023-02-18T18:23:20.593Z,96697.61
2023-02-18T18:25:55.694Z,96699.09
2023-02-18T18:28:33.172Z,96696.66
2023-02-18T18:31:16.500Z,96695.85
2023-02-18T18:33:53.885Z,96694.17
2023-02-18T18:36:28.320Z,96683.80
2023-02-18T18:39:01.672Z,96700.20
2023-02-18T18:41:35.380Z,96697.06
2023-02-18T18:44:16.439Z,96698.65
2023-02-18T18:46:51.847Z,96691.36
2023-02-18T18:49:27.002Z,96690.91
2023-02-18T18:52:00.391Z,96690.96
2023-02-18T18:54:34.362Z,96688.66
2023-02-18T18:57:11.929Z,96696.18
2023-02-18T18:59:47.220Z,96701.58
2023-02-18T19:02:23.658Z,96697.23
2023-02-18T19:04:57.354Z,96700.14
2023-02-18T19:07:34.301Z,96714.05
2023-02-18T19:10:12.771Z,96717.08
2023-02-18T19:12:49.005Z,96716.11
2023-02-18T19:15:27.170Z,96717.30
2023-02-18T19:18:02.337Z,96711.38
2023-02-18T19:20:40.131Z,96714.84
2023-02-18T19:23:16.872Z,96715.19
2023-02-18T19:25:53.057Z,96707.62
2023-02-18T19:28:26.714Z,96712.67
2023-02-18T19:30:59.645Z,96717.08
2023-02-18T19:33:34.414Z,96715.52
2023-02-18T19:36:14.133Z,96722.62
2023-02-18T19:38:49.058Z,96725.57
2023-02-18T19:41:26.615Z,96744.81
2023-02-18T19:44:04.574Z,96752.77
2023-02-18T19:46:38.196Z,96772.66
2023-02-18T19:49:14.432Z,96772.42
2023-02-18T19:51:49.580Z,96784.88
2023-02-18T19:54:23.039Z,96787.73
2023-02-18T19:56:56.179Z,96786.77
2023-02-18T19:59:31.387Z,96802.97
2023-02-18T20:02:05.039Z,96800.59
2023-02-18T20:04:38.760Z,96802.80
2023-02-18T20:07:19.603Z,96803.94
2023-02-18T20:10:12.918Z,96809.94
2023-02-18T20:12:56.580Z,96815.17
2023-02-18T20:15:44.060Z,96817.05
2023-02-18T20:18:21.319Z,96822.60
2023-02-18T20:20:55.238Z,96826.11
2023-02-18T20:23:26.154Z,96824.41
2023-02-18T20:26:03.381Z,96829.66
2023-02-18T20:28:39.342Z,96825.04
2023-02-18T20:31:14.978Z,96826.66
2023-02-18T20:33:52.721Z,96827.98
2023-02-18T20:36:26.428Z,96834.56
2023-02-18T20:39:10.800Z,96833.96
2023-02-18T20:42:02.911Z,96831.32
2023-02-18T20:44:39.713Z,96835.29
2023-02-18T20:47:14.586Z,96835.39
2023-02-18T20:49:48.041Z,96840.94
2023-02-18T20:52:18.979Z,96841.27
2023-02-18T20:54:52.660Z,96840.02
2023-02-18T20:57:28.305Z,96837.56
2023-02-18T21:00:01.681Z,96847.29
2023-02-18T21:02:35.922Z,96852.65
2023-02-18T21:05:10.272Z,96863.42
2023-02-18T21:07:43.006Z,96875.43
2023-02-18T21:10:16.399Z,96881.68
2023-02-18T21:12:49.243Z,96883.55
2023-02-18T21:15:22.559Z,96888.20
2023-02-18T21:17:56.217Z,96887.45
2023-02-18T21:20:29.438Z,96884.71
2023-02-18T21:23:02.879Z,96880.06
2023-02-18T21:25:34.478Z,96879.37
2023-02-18T21:28:09.555Z,96893.70
2023-02-18T21:30:56.994Z,96892.93
2023-02-18T21:33:30.073Z,96894.55
2023-02-18T21:36:11.478Z,96904.22
2023-02-18T21:38:47.597Z,96920.12
2023-02-18T21:41:22.494Z,96928.60
2023-02-18T21:43:55.554Z,96928.30
2023-02-18T21:46:29.615Z,96932.81
2023-02-18T21:49:06.244Z,96939.98
2023-02-18T21:52:08.841Z,96931.95
2023-02-18T21:54:45.014Z,96935.61
2023-02-18T21:57:20.105Z,96939.27
2023-02-18T21:59:52.870Z,96950.16
2023-02-18T22:02:28.455Z,96956.55
2023-02-18T22:05:02.868Z,96964.13
2023-02-18T22:07:36.640Z,96964.44
2023-02-18T22:10:11.610Z,96972.73
2023-02-18T22:12:44.640Z,96975.60
2023-02-18T22:15:18.042Z,96985.55
2023-02-18T22:17:50.988Z,96993.52
2023-02-18T22:20:23.811Z,97004.92
2023-02-18T22:22:57.381Z,97011.17
2023-02-18T22:25:30.083Z,97011.95
2023-02-18T22:28:03.120Z,97019.67
2023-02-18T22:30:35.955Z,97024.44
2023-02-18T22:33:08.696Z,97031.11
2023-02-18T22:35:41.416Z,97026.48
2023-02-18T22:38:14.365Z,97030.34
2023-02-18T22:40:50.818Z,97037.09
2023-02-18T22:43:24.243Z,97044.53
2023-02-18T22:45:59.491Z,97046.20
2023-02-18T22:48:34.106Z,97052.15
2023-02-18T22:51:09.539Z,97056.11
2023-02-18T22:53:44.890Z,97054.02
2023-02-18T22:56:20.794Z,97062.73
2023-02-18T22:58:55.605Z,97063.56
2023-02-18T23:01:30.410Z,97075.90
2023-02-18T23:04:08.200Z,97078.17
2023-02-18T23:06:42.127Z,97087.48
2023-02-18T23:09:17.394Z,97096.23
2023-02-18T23:11:54.134Z,97106.34
2023-02-18T23:14:30.154Z,97116.87
2023-02-18T23:17:14.703Z,97127.27
2023-02-18T23:19:49.334Z,97133.80
2023-02-18T23:22:28.954Z,97145.05
2023-02-18T23:25:04.460Z,97146.91
2023-02-18T23:27:37.242Z,97150.73
2023-02-18T23:30:11.617Z,97139.52
2023-02-18T23:32:44.574Z,97136.23
2023-02-18T23:35:21.565Z,97136.42
2023-02-18T23:38:06.774Z,97140.73
2023-02-18T23:40:40.239Z,97152.70
2023-02-18T23:43:13.343Z,97153.14
2023-02-18T23:45:46.139Z,97160.84
2023-02-18T23:48:18.718Z,97167.92
2023-02-18T23:50:52.499Z,97176.16
2023-02-18T23:53:28.733Z,97177.11
2023-02-18T23:56:13.105Z,97176.99
2023-02-18T23:58:47.881Z,97176.36
